createdAt,value
2022-10-15T00:00:07.676Z,51.50
2022-10-15T00:02:34.240Z,51.60
2022-10-15T00:05:01.131Z,51.80
2022-10-15T00:07:28.333Z,51.90
2022-10-15T00:09:54.895Z,51.90
2022-10-15T00:12:23.578Z,52.10
2022-10-15T00:14:50.146Z,52.00
2022-10-15T00:17:16.726Z,52.00
2022-10-15T00:19:43.287Z,52.00
2022-10-15T00:22:10.980Z,52.20
2022-10-15T00:24:37.547Z,52.10
2022-10-15T00:27:04.172Z,52.10
2022-10-15T00:29:32.822Z,52.10
2022-10-15T00:32:00.253Z,52.10
2022-10-15T00:34:26.850Z,52.20
2022-10-15T00:36:53.421Z,52.20
2022-10-15T00:39:19.994Z,52.10
2022-10-15T00:41:46.804Z,52.20
2022-10-15T00:44:22.547Z,52.10
2022-10-15T00:46:49.632Z,52.20
2022-10-15T00:49:30.114Z,52.20
2022-10-15T00:52:23.298Z,52.20
2022-10-15T00:54:51.491Z,52.30
2022-10-15T00:57:18.053Z,52.20
2022-10-15T00:59:47.033Z,52.30
2022-10-15T01:02:13.613Z,52.20
2022-10-15T01:04:40.226Z,52.20
2022-10-15T01:07:06.977Z,52.20
2022-10-15T01:09:33.617Z,52.20
2022-10-15T01:12:02.597Z,52.30
2022-10-15T01:14:47.380Z,52.20
2022-10-15T01:17:14.005Z,52.30
2022-10-15T01:19:56.249Z,52.30
2022-10-15T01:22:41.646Z,52.30
2022-10-15T01:25:26.844Z,52.30
2022-10-15T01:27:54.676Z,52.20
2022-10-15T01:30:21.244Z,51.90
2022-10-15T01:32:54.004Z,51.60
2022-10-15T01:35:26.568Z,51.40
2022-10-15T01:37:54.659Z,51.20
2022-10-15T01:40:25.661Z,50.90
2022-10-15T01:43:02.982Z,50.80
2022-10-15T01:45:33.891Z,50.80
2022-10-15T01:48:02.565Z,51.00
2022-10-15T01:50:29.858Z,51.10
2022-10-15T01:52:56.426Z,51.30
2022-10-15T01:55:25.940Z,51.30
2022-10-15T01:57:52.517Z,51.30
2022-10-15T02:00:19.175Z,51.40
2022-10-15T02:02:45.812Z,51.60
2022-10-15T02:05:16.433Z,51.70
2022-10-15T02:07:50.739Z,51.70
2022-10-15T02:10:26.186Z,51.50
2022-10-15T02:12:52.745Z,51.50
2022-10-15T02:15:21.478Z,51.50
2022-10-15T02:17:48.016Z,51.60
2022-10-15T02:20:15.703Z,51.60
2022-10-15T02:22:49.418Z,51.80
2022-10-15T02:25:20.076Z,51.80
2022-10-15T02:27:47.430Z,51.80
2022-10-15T02:30:16.396Z,51.90
2022-10-15T02:32:43.128Z,51.90
2022-10-15T02:35:09.901Z,52.00
2022-10-15T02:37:39.792Z,52.00
2022-10-15T02:40:06.576Z,52.10
2022-10-15T02:42:33.130Z,52.00
2022-10-15T02:45:02.498Z,52.00
2022-10-15T02:47:29.307Z,52.00
2022-10-15T02:49:56.355Z,52.00
2022-10-15T02:52:25.976Z,52.10
2022-10-15T02:54:55.669Z,52.10
2022-10-15T02:57:25.244Z,52.10
2022-10-15T02:59:52.160Z,52.10
2022-10-15T03:02:19.384Z,52.10
2022-10-15T03:04:46.239Z,52.00
2022-10-15T03:07:16.439Z,52.00
2022-10-15T03:09:42.999Z,52.20
2022-10-15T03:12:09.601Z,52.00
2022-10-15T03:14:36.310Z,52.10
2022-10-15T03:17:02.876Z,52.20
2022-10-15T03:19:29.452Z,52.10
2022-10-15T03:21:56.025Z,52.10
2022-10-15T03:24:22.601Z,52.20
2022-10-15T03:26:49.670Z,52.10
2022-10-15T03:29:16.241Z,52.10
2022-10-15T03:31:44.414Z,52.20
2022-10-15T03:34:10.988Z,52.20
2022-10-15T03:36:37.556Z,52.20
2022-10-15T03:39:06.303Z,52.20
2022-10-15T03:41:32.961Z,52.20
2022-10-15T03:44:02.886Z,52.10
2022-10-15T03:46:32.409Z,51.80
2022-10-15T03:48:58.999Z,51.60
2022-10-15T03:51:27.861Z,51.40
2022-10-15T03:53:55.818Z,51.20
2022-10-15T03:56:22.371Z,50.90
2022-10-15T03:58:49.444Z,50.70
2022-10-15T04:01:17.021Z,50.70
2022-10-15T04:03:43.628Z,50.90
2022-10-15T04:06:13.010Z,50.90
2022-10-15T04:08:39.723Z,51.00
2022-10-15T04:11:06.311Z,51.10
2022-10-15T04:13:32.868Z,51.20
2022-10-15T04:15:59.432Z,51.40
2022-10-15T04:18:26.102Z,51.40
2022-10-15T04:20:53.354Z,51.60
2022-10-15T04:23:19.937Z,51.50
2022-10-15T04:25:47.124Z,51.50
2022-10-15T04:28:15.307Z,51.50
2022-10-15T04:30:41.877Z,51.50
2022-10-15T04:33:08.720Z,51.50
2022-10-15T04:35:35.409Z,51.50
2022-10-15T04:38:02.206Z,51.50
2022-10-15T04:40:28.788Z,51.60
2022-10-15T04:42:55.366Z,51.50
2022-10-15T04:47:48.587Z,51.70
2022-10-15T04:50:15.326Z,51.70
2022-10-15T04:52:41.895Z,51.80
2022-10-15T04:55:08.548Z,51.80
2022-10-15T04:57:35.159Z,51.90
2022-10-15T05:00:02.328Z,51.90
2022-10-15T05:02:29.031Z,51.90
2022-10-15T05:04:55.662Z,51.90
2022-10-15T05:07:22.521Z,51.90
2022-10-15T05:09:49.325Z,52.00
2022-10-15T05:12:18.539Z,52.00
2022-10-15T05:14:45.117Z,52.00
2022-10-15T05:17:11.673Z,52.00
2022-10-15T05:19:38.241Z,52.10
2022-10-15T05:22:04.794Z,52.00
2022-10-15T05:24:31.363Z,52.00
2022-10-15T05:26:57.937Z,52.00
2022-10-15T05:29:24.565Z,52.00
2022-10-15T05:31:52.076Z,52.00
2022-10-15T05:34:18.655Z,52.10
2022-10-15T05:36:45.265Z,52.30
2022-10-15T05:39:12.301Z,52.30
2022-10-15T05:41:38.958Z,52.30
2022-10-15T05:44:05.554Z,52.30
2022-10-15T05:46:32.151Z,52.30
2022-10-15T05:49:00.561Z,52.40
2022-10-15T05:51:27.624Z,52.50
2022-10-15T05:53:54.656Z,52.50
2022-10-15T05:56:21.317Z,52.40
2022-10-15T05:58:47.880Z,52.30
2022-10-15T06:01:14.503Z,51.80
2022-10-15T06:03:41.145Z,51.90
2022-10-15T06:06:23.366Z,51.70
2022-10-15T06:08:50.057Z,51.60
2022-10-15T06:11:16.790Z,52.00
2022-10-15T06:13:43.768Z,52.00
2022-10-15T06:16:10.470Z,52.50
2022-10-15T06:18:37.308Z,51.80
2022-10-15T06:21:04.295Z,51.90
2022-10-15T06:23:30.945Z,52.00
2022-10-15T06:26:01.303Z,52.30
2022-10-15T06:28:28.063Z,52.40
2022-10-15T06:30:54.700Z,52.40
2022-10-15T06:33:21.291Z,52.40
2022-10-15T06:35:48.120Z,52.50
2022-10-15T06:38:14.675Z,52.60
2022-10-15T06:40:41.245Z,53.30
2022-10-15T06:43:08.561Z,52.80
2022-10-15T06:45:36.583Z,52.90
2022-10-15T06:48:06.374Z,52.80
2022-10-15T06:50:33.343Z,52.90
2022-10-15T06:55:31.484Z,53.00
2022-10-15T06:57:58.048Z,53.00
2022-10-15T07:00:24.921Z,53.00
2022-10-15T07:02:51.587Z,53.10
2022-10-15T07:05:18.389Z,53.00
2022-10-15T07:07:54.597Z,53.00
2022-10-15T07:10:21.526Z,53.10
2022-10-15T07:12:48.193Z,53.00
2022-10-15T07:15:14.821Z,53.20
2022-10-15T07:17:50.779Z,53.10
2022-10-15T07:20:21.631Z,53.20
2022-10-15T07:22:50.968Z,53.30
2022-10-15T07:25:17.593Z,53.30
2022-10-15T07:27:44.232Z,53.30
2022-10-15T07:30:11.010Z,53.40
2022-10-15T07:32:37.655Z,53.30
2022-10-15T07:35:05.117Z,53.40
2022-10-15T07:37:31.933Z,53.50
2022-10-15T07:39:59.283Z,53.80
2022-10-15T07:42:34.675Z,53.80
2022-10-15T07:45:01.251Z,54.00
2022-10-15T07:47:27.805Z,54.10
2022-10-15T07:49:54.380Z,54.20
2022-10-15T07:52:21.157Z,54.30
2022-10-15T07:54:47.869Z,54.40
2022-10-15T07:57:14.428Z,54.70
2022-10-15T07:59:40.989Z,54.60
2022-10-15T08:02:10.761Z,54.70
2022-10-15T08:04:37.321Z,55.00
2022-10-15T08:07:05.812Z,54.60
2022-10-15T08:09:34.660Z,54.70
2022-10-15T08:12:01.288Z,53.70
2022-10-15T08:14:27.846Z,53.60
2022-10-15T08:16:54.423Z,53.60
2022-10-15T08:19:20.986Z,53.70
2022-10-15T08:21:47.714Z,54.20
2022-10-15T08:24:14.335Z,54.30
2022-10-15T08:26:40.890Z,54.30
2022-10-15T08:29:07.515Z,54.50
2022-10-15T08:31:34.215Z,54.70
2022-10-15T08:34:01.425Z,55.00
2022-10-15T08:36:28.032Z,54.90
2022-10-15T08:38:54.592Z,55.00
2022-10-15T08:41:40.034Z,55.10
2022-10-15T08:44:06.987Z,55.20
2022-10-15T08:46:35.145Z,55.30
2022-10-15T08:49:01.895Z,55.30
2022-10-15T08:51:30.470Z,55.40
2022-10-15T08:53:58.126Z,55.40
2022-10-15T08:56:27.287Z,55.50
2022-10-15T08:58:57.602Z,55.40
2022-10-15T09:01:31.426Z,55.60
2022-10-15T09:04:03.978Z,55.60
2022-10-15T09:06:30.541Z,55.60
2022-10-15T09:09:03.851Z,55.80
2022-10-15T09:11:53.925Z,55.90
2022-10-15T09:14:21.948Z,55.80
2022-10-15T09:16:49.072Z,56.00
2022-10-15T09:19:19.684Z,56.00
2022-10-15T09:21:49.397Z,55.80
2022-10-15T09:24:18.509Z,56.00
2022-10-15T09:26:48.101Z,56.00
2022-10-15T09:29:22.104Z,56.00
2022-10-15T09:31:54.558Z,56.00
2022-10-15T09:34:23.038Z,56.10
2022-10-15T09:36:53.829Z,56.00
2022-10-15T09:39:31.300Z,56.20
2022-10-15T09:42:08.093Z,56.00
2022-10-15T09:44:38.318Z,56.40
2022-10-15T09:47:14.917Z,56.20
2022-10-15T09:49:42.613Z,56.20
2022-10-15T09:52:21.464Z,56.40
2022-10-15T09:54:48.414Z,56.20
2022-10-15T09:57:15.025Z,56.00
2022-10-15T09:59:57.996Z,55.70
2022-10-15T10:02:27.752Z,55.90
2022-10-15T10:04:54.889Z,55.50
2022-10-15T10:07:34.917Z,54.80
2022-10-15T10:10:05.555Z,55.20
2022-10-15T10:12:35.450Z,54.90
2022-10-15T10:15:04.865Z,54.90
2022-10-15T10:17:31.510Z,55.20
2022-10-15T10:20:07.485Z,55.40
2022-10-15T10:22:51.541Z,55.50
2022-10-15T10:25:30.610Z,55.70
2022-10-15T10:27:57.229Z,55.90
2022-10-15T10:30:23.981Z,55.90
2022-10-15T10:32:55.212Z,55.90
2022-10-15T10:35:25.597Z,56.00
2022-10-15T10:37:52.166Z,56.10
2022-10-15T10:40:27.006Z,56.10
2022-10-15T10:43:23.697Z,56.20
2022-10-15T10:45:53.094Z,56.30
2022-10-15T10:48:20.480Z,56.30
2022-10-15T10:50:47.119Z,56.10
2022-10-15T10:53:23.773Z,56.20
2022-10-15T10:55:51.067Z,56.30
2022-10-15T10:58:22.103Z,56.40
2022-10-15T11:00:55.711Z,56.40
2022-10-15T11:03:30.265Z,56.40
2022-10-15T11:06:17.096Z,56.40
2022-10-15T11:09:01.993Z,56.70
2022-10-15T11:11:43.743Z,56.50
2022-10-15T11:14:28.847Z,56.70
2022-10-15T11:16:55.401Z,56.20
2022-10-15T11:19:50.250Z,56.20
2022-10-15T11:22:13.629Z,55.70
2022-10-15T11:24:48.964Z,55.40
2022-10-15T11:27:28.263Z,55.40
2022-10-15T11:29:54.924Z,55.60
2022-10-15T11:32:54.541Z,55.80
2022-10-15T11:35:54.486Z,56.00
2022-10-15T11:38:33.876Z,56.20
2022-10-15T11:41:07.566Z,56.40
2022-10-15T11:43:34.204Z,56.50
2022-10-15T11:46:03.718Z,56.60
2022-10-15T11:48:47.576Z,56.60
2022-10-15T11:51:33.046Z,56.60
2022-10-15T11:54:05.029Z,56.70
2022-10-15T11:56:36.362Z,56.80
2022-10-15T11:59:05.536Z,56.80
2022-10-15T12:01:38.133Z,56.90
2022-10-15T12:04:06.369Z,56.90
2022-10-15T12:06:35.857Z,57.00
2022-10-15T12:09:02.753Z,56.90
2022-10-15T12:11:39.731Z,57.10
2022-10-15T12:14:25.130Z,57.00
2022-10-15T12:16:57.726Z,57.10
2022-10-15T12:19:25.595Z,57.40
2022-10-15T12:21:55.203Z,57.20
2022-10-15T12:24:37.150Z,57.00
2022-10-15T12:27:18.900Z,56.80
2022-10-15T12:29:45.902Z,56.50
2022-10-15T12:32:25.442Z,56.50
2022-10-15T12:34:55.959Z,55.90
2022-10-15T12:37:23.357Z,55.90
2022-10-15T12:40:00.156Z,55.70
2022-10-15T12:42:27.938Z,56.00
2022-10-15T12:44:54.552Z,56.00
2022-10-15T12:47:39.674Z,56.10
2022-10-15T12:50:06.411Z,56.30
2022-10-15T12:52:51.721Z,56.50
2022-10-15T12:55:31.480Z,56.60
2022-10-15T12:57:59.719Z,56.70
2022-10-15T13:00:26.286Z,56.70
2022-10-15T13:02:53.305Z,56.70
2022-10-15T13:05:25.974Z,56.60
2022-10-15T13:07:52.674Z,56.80
2022-10-15T13:10:21.567Z,56.90
2022-10-15T13:12:52.425Z,56.90
2022-10-15T13:15:19.020Z,56.90
2022-10-15T13:17:45.591Z,57.00
2022-10-15T13:20:27.478Z,57.10
2022-10-15T13:23:01.863Z,57.00
2022-10-15T13:25:33.772Z,57.00
2022-10-15T13:28:02.470Z,57.10
2022-10-15T13:30:29.080Z,57.10
2022-10-15T13:32:55.760Z,56.60
2022-10-15T13:35:22.955Z,57.50
2022-10-15T13:37:49.510Z,57.90
2022-10-15T13:40:31.300Z,57.60
2022-10-15T13:43:06.142Z,58.50
2022-10-15T13:45:32.861Z,57.70
2022-10-15T13:47:59.469Z,57.00
2022-10-15T13:50:27.072Z,56.40
2022-10-15T13:53:08.936Z,56.60
2022-10-15T13:55:39.167Z,56.70
2022-10-15T14:00:34.484Z,57.40
2022-10-15T14:03:17.785Z,57.90
2022-10-15T14:05:44.651Z,58.20
2022-10-15T14:08:18.775Z,58.70
2022-10-15T14:10:47.006Z,58.50
2022-10-15T14:13:14.811Z,59.40
2022-10-15T14:15:41.653Z,59.10
2022-10-15T14:18:09.572Z,58.80
2022-10-15T14:20:37.168Z,59.50
2022-10-15T14:23:03.833Z,59.30
2022-10-15T14:25:31.436Z,59.40
2022-10-15T14:27:58.325Z,59.70
2022-10-15T14:30:30.266Z,59.60
2022-10-15T14:32:56.825Z,59.70
2022-10-15T14:35:33.714Z,59.70
2022-10-15T14:38:00.349Z,60.00
2022-10-15T14:40:27.002Z,59.70
2022-10-15T14:43:06.775Z,59.70
2022-10-15T14:45:43.870Z,60.00
2022-10-15T14:48:19.321Z,59.80
2022-10-15T14:50:46.180Z,59.50
2022-10-15T14:53:19.448Z,59.50
2022-10-15T14:55:52.276Z,59.00
2022-10-15T14:58:22.021Z,58.40
2022-10-15T15:00:49.475Z,58.20
2022-10-15T15:03:19.865Z,58.20
2022-10-15T15:05:50.458Z,58.20
2022-10-15T15:08:17.067Z,58.30
2022-10-15T15:10:43.849Z,58.50
2022-10-15T15:13:20.123Z,58.70
2022-10-15T15:15:47.880Z,58.80
2022-10-15T15:18:14.699Z,58.90
2022-10-15T15:20:41.677Z,59.10
2022-10-15T15:23:09.344Z,59.10
2022-10-15T15:25:37.020Z,58.00
2022-10-15T15:28:03.826Z,58.00
2022-10-15T15:30:31.298Z,58.30
2022-10-15T15:32:57.903Z,58.80
2022-10-15T15:35:25.649Z,59.10
2022-10-15T15:37:52.474Z,59.20
2022-10-15T15:40:19.287Z,59.10
2022-10-15T15:42:46.057Z,59.20
2022-10-15T15:45:22.947Z,59.60
2022-10-15T15:47:49.695Z,59.60
2022-10-15T15:50:16.666Z,59.70
2022-10-15T15:52:43.654Z,59.70
2022-10-15T15:55:10.394Z,59.70
2022-10-15T15:57:36.980Z,59.90
2022-10-15T16:00:04.760Z,59.50
2022-10-15T16:02:31.409Z,59.30
2022-10-15T16:04:58.111Z,59.00
2022-10-15T16:07:28.324Z,59.00
2022-10-15T16:09:55.353Z,58.40
2022-10-15T16:12:22.033Z,58.10
2022-10-15T16:14:48.678Z,58.20
2022-10-15T16:17:15.324Z,58.30
2022-10-15T16:19:41.907Z,58.50
2022-10-15T16:22:08.552Z,58.70
2022-10-15T16:24:35.792Z,58.60
2022-10-15T16:27:02.559Z,57.50
2022-10-15T16:29:31.191Z,58.30
2022-10-15T16:31:57.815Z,58.50
2022-10-15T16:34:24.971Z,59.10
2022-10-15T16:36:51.567Z,59.30
2022-10-15T16:39:18.465Z,59.10
2022-10-15T16:41:45.053Z,59.20
2022-10-15T16:44:11.999Z,59.50
2022-10-15T16:46:38.726Z,59.40
2022-10-15T16:49:05.513Z,59.50
2022-10-15T16:51:32.403Z,59.60
2022-10-15T16:53:59.166Z,59.70
2022-10-15T16:56:26.944Z,59.60
2022-10-15T16:58:53.737Z,59.90
2022-10-15T17:01:21.762Z,59.80
2022-10-15T17:03:48.787Z,59.20
2022-10-15T17:06:17.388Z,59.20
2022-10-15T17:08:44.188Z,58.90
2022-10-15T17:11:11.653Z,58.80
2022-10-15T17:13:38.587Z,58.30
2022-10-15T17:16:09.301Z,58.30
2022-10-15T17:18:36.155Z,58.20
2022-10-15T17:21:02.875Z,58.20
2022-10-15T17:23:30.714Z,58.60
2022-10-15T17:25:57.483Z,59.20
2022-10-15T17:28:24.247Z,58.90
2022-10-15T17:30:50.865Z,58.90
2022-10-15T17:33:17.629Z,58.90
2022-10-15T17:35:44.302Z,59.20
2022-10-15T17:38:11.119Z,59.20
2022-10-15T17:40:39.419Z,59.50
2022-10-15T17:43:06.059Z,59.30
2022-10-15T17:45:32.727Z,59.50
2022-10-15T17:47:59.373Z,59.50
2022-10-15T17:50:25.996Z,59.40
2022-10-15T17:52:52.595Z,59.40
2022-10-15T17:55:19.977Z,59.50
2022-10-15T17:57:46.581Z,59.50
2022-10-15T18:00:13.754Z,59.50
2022-10-15T18:02:40.425Z,59.50
2022-10-15T18:05:07.912Z,59.50
2022-10-15T18:07:34.819Z,59.60
2022-10-15T18:10:01.668Z,59.60
2022-10-15T18:12:28.312Z,59.50
2022-10-15T18:14:54.922Z,59.50
2022-10-15T18:17:21.517Z,59.50
2022-10-15T18:19:48.082Z,59.20
2022-10-15T18:22:14.677Z,59.30
2022-10-15T18:24:41.368Z,59.00
2022-10-15T18:27:07.967Z,58.70
2022-10-15T18:29:36.102Z,58.30
2022-10-15T18:32:02.996Z,58.20
2022-10-15T18:34:34.115Z,58.10
2022-10-15T18:37:00.729Z,58.20
2022-10-15T18:39:27.319Z,58.30
2022-10-15T18:41:54.325Z,58.50
2022-10-15T18:44:21.637Z,58.60
2022-10-15T18:46:48.239Z,58.80
2022-10-15T18:49:15.479Z,58.90
2022-10-15T18:51:42.162Z,59.00
2022-10-15T18:54:10.781Z,59.20
2022-10-15T18:56:37.459Z,59.20
2022-10-15T18:59:04.046Z,59.20
2022-10-15T19:01:37.441Z,59.30
2022-10-15T19:04:07.048Z,59.20
2022-10-15T19:06:35.507Z,59.40
2022-10-15T19:09:02.608Z,59.40
2022-10-15T19:11:29.313Z,59.30
2022-10-15T19:13:56.674Z,59.30
2022-10-15T19:16:23.336Z,59.40
2022-10-15T19:18:49.940Z,59.40
2022-10-15T19:21:16.566Z,59.40
2022-10-15T19:23:43.179Z,59.30
2022-10-15T19:26:09.974Z,59.30
2022-10-15T19:28:37.078Z,59.20
2022-10-15T19:31:05.300Z,59.30
2022-10-15T19:33:31.962Z,59.30
2022-10-15T19:35:58.577Z,59.20
2022-10-15T19:38:25.254Z,59.20
2022-10-15T19:40:52.053Z,59.20
2022-10-15T19:43:19.079Z,59.20
2022-10-15T19:45:45.980Z,59.10
2022-10-15T19:48:15.532Z,59.20
2022-10-15T19:50:42.921Z,59.10
2022-10-15T19:53:11.648Z,59.10
2022-10-15T19:55:38.886Z,59.30
2022-10-15T19:58:05.520Z,59.10
2022-10-15T20:00:32.219Z,59.30
2022-10-15T20:03:00.066Z,59.20
2022-10-15T20:05:26.780Z,59.10
2022-10-15T20:07:53.342Z,59.70
2022-10-15T20:10:24.854Z,58.70
2022-10-15T20:12:52.476Z,58.50
2022-10-15T20:15:19.108Z,58.20
2022-10-15T20:17:46.837Z,58.00
2022-10-15T20:20:13.474Z,57.70
2022-10-15T20:22:40.071Z,57.50
2022-10-15T20:25:06.828Z,57.50
2022-10-15T20:27:33.477Z,57.40
2022-10-15T20:30:00.087Z,57.60
2022-10-15T20:32:35.029Z,57.60
2022-10-15T20:35:02.494Z,57.70
2022-10-15T20:37:29.361Z,57.90
2022-10-15T20:42:23.827Z,58.00
2022-10-15T20:44:50.827Z,58.10
2022-10-15T20:47:17.492Z,58.10
2022-10-15T20:49:45.476Z,58.20
2022-10-15T20:52:12.293Z,58.20
2022-10-15T20:54:38.876Z,58.30
2022-10-15T20:57:05.441Z,58.30
2022-10-15T20:59:32.188Z,58.40
2022-10-15T21:01:58.769Z,58.20
2022-10-15T21:04:25.382Z,58.90
2022-10-15T21:06:52.013Z,58.40
2022-10-15T21:09:18.581Z,58.40
2022-10-15T21:11:45.370Z,58.40
2022-10-15T21:14:12.495Z,59.10
2022-10-15T21:16:39.505Z,58.50
2022-10-15T21:19:06.107Z,58.50
2022-10-15T21:21:32.713Z,58.30
2022-10-15T21:23:59.292Z,58.40
2022-10-15T21:26:25.890Z,58.40
2022-10-15T21:28:56.069Z,58.50
2022-10-15T21:31:22.841Z,58.50
2022-10-15T21:33:49.502Z,58.40
2022-10-15T21:36:16.100Z,58.50
2022-10-15T21:38:42.664Z,58.40
2022-10-15T21:41:09.264Z,59.10
2022-10-15T21:43:35.892Z,58.50
2022-10-15T21:46:05.767Z,58.40
2022-10-15T21:48:32.391Z,58.50
2022-10-15T21:50:59.001Z,58.40
2022-10-15T21:53:25.646Z,58.40
2022-10-15T21:55:53.350Z,58.40
2022-10-15T21:58:20.063Z,58.40
2022-10-15T22:00:46.687Z,58.40
2022-10-15T22:03:13.257Z,58.40
2022-10-15T22:05:39.935Z,58.20
2022-10-15T22:08:07.558Z,57.90
2022-10-15T22:10:35.062Z,57.60
2022-10-15T22:13:01.639Z,57.40
2022-10-15T22:15:28.197Z,57.10
2022-10-15T22:17:54.766Z,56.90
2022-10-15T22:20:23.738Z,56.80
2022-10-15T22:22:50.587Z,56.90
2022-10-15T22:25:17.227Z,57.00
2022-10-15T22:27:43.816Z,56.90
2022-10-15T22:30:10.522Z,57.10
2022-10-15T22:32:37.205Z,57.10
2022-10-15T22:35:03.843Z,57.20
2022-10-15T22:37:30.420Z,57.40
2022-10-15T22:39:57.006Z,57.50
2022-10-15T22:42:23.911Z,57.40
2022-10-15T22:44:50.772Z,57.50
2022-10-15T22:47:17.338Z,57.60
2022-10-15T22:49:43.903Z,57.60
2022-10-15T22:52:10.498Z,58.20
2022-10-15T22:54:37.184Z,57.70
2022-10-15T22:57:03.848Z,57.70
2022-10-15T22:59:30.438Z,57.80
2022-10-15T23:01:57.046Z,57.70
2022-10-15T23:04:23.629Z,57.70
2022-10-15T23:06:50.202Z,57.80
2022-10-15T23:09:17.975Z,57.70
2022-10-15T23:11:45.372Z,57.80
2022-10-15T23:14:13.258Z,57.80
2022-10-15T23:16:40.764Z,57.70
2022-10-15T23:19:09.258Z,57.70
2022-10-15T23:21:37.355Z,57.70
2022-10-15T23:24:04.165Z,57.70
2022-10-15T23:26:30.922Z,57.70
2022-10-15T23:29:00.989Z,57.70
2022-10-15T23:31:28.534Z,57.70
2022-10-15T23:33:55.555Z,57.70
2022-10-15T23:36:22.283Z,57.70
2022-10-15T23:38:49.224Z,57.70
2022-10-15T23:41:15.796Z,57.70
2022-10-15T23:43:42.348Z,57.70
2022-10-15T23:46:08.927Z,57.70
2022-10-15T23:48:35.506Z,57.80
2022-10-15T23:51:03.492Z,57.60
2022-10-15T23:53:31.295Z,57.70
2022-10-15T23:55:57.890Z,57.70
2022-10-15T23:58:24.510Z,57.70
